Monday, July 23, 2018, 3:15 PM GMT
Back to Local

CYSC, Sherbrooke, Que.

Location: , , Canada Lat: 45.4
Local Time: 3:15 PM GMT (15:15 GMT) Lon: -71.883
Time Zone: GMT Elev: 557 ft

Show me the last for .
Show Decoded

2018-07-23 15:00 METAR CYSC 231500Z AUTO 17007KT 140V200 9SM FEW026 SCT030 26/22 A3021 RMK SLP228
                 DENSITY ALT 1800FT =
2018-07-23 14:11 METAR CYSC 231411Z AUTO 19005KT 160V230 9SM SCT023 26/22 A3020 RMK SLP227
                 DENSITY ALT 1800FT =
2018-07-23 14:00 METAR CYSC 231400Z AUTO 21006KT 130V220 9SM BKN023 25/22 A3020 RMK SLP227
                 DENSITY ALT 1800FT =
2018-07-23 13:45 METAR CYSC 231345Z AUTO 13003KT 080V170 9SM BKN023 25/22 A3020 RMK SLP226
                 DENSITY ALT 1700FT =
2018-07-23 13:00 METAR CYSC 231300Z AUTO 09003KT 060V120 9SM CLR 23/21 A3019 RMK SLP224 DENSITY
                 ALT 1600FT =
2018-07-23 12:00 METAR CYSC 231200Z AUTO 11004KT 9SM FEW050 22/21 A3019 RMK SLP223 DENSITY ALT
                 1400FT =
2018-07-23 11:20 METAR CYSC 231120Z AUTO 03003KT 9SM FEW090 SCT250 20/20 A3017 RMK SLP219 DENSITY
                 ALT 1200FT =
2018-07-23 11:09 METAR CYSC 231109Z AUTO VRB02KT 9SM -RA SCT090 SCT250 20/20 A3017 RMK SLP219
                 DENSITY ALT 1200FT =
2018-07-23 11:03 METAR CYSC 231103Z AUTO VRB02KT 9SM SCT090 SCT250 20/20 A3017 RMK SLP218 DENSITY
                 ALT 1200FT =
2018-07-23 11:00 METAR CYSC 231100Z AUTO VRB02KT 9SM -RA SCT085 SCT250 20/20 A3017 RMK SLP218
                 DENSITY ALT 1200FT =
2018-07-23 10:00 METAR CYSC 231000Z AUTO 07006KT 7SM -RA BKN049 20/19 A3016 RMK SLP214 DENSITY
                 ALT 1200FT =
2018-07-23 09:39 METAR CYSC 230939Z AUTO 09007KT 9SM -RA SCT042 BKN055 BKN073 BKN094 20/20 A3016
                 RMK SLP215 DENSITY ALT 1300FT =
2018-07-23 09:00 METAR CYSC 230900Z AUTO 06003KT 9SM FEW075 BKN088 BKN110 BKN250 20/19 A3016 RMK
                 SLP214 DENSITY ALT 1200FT =
2018-07-23 08:42 METAR CYSC 230842Z AUTO 06004KT 9SM FEW030 SCT075 BKN085 20/19 A3015 RMK SLP212
                 DENSITY ALT 1200FT =
2018-07-23 08:02 METAR CYSC 230802Z AUTO 04002KT 9SM -RA FEW075 SCT099 SCT250 20/19 A3015 RMK
                 SLP212 DENSITY ALT 1200FT =
2018-07-23 08:00 METAR CYSC 230800Z AUTO 04002KT 9SM FEW075 SCT099 SCT250 20/19 A3015 RMK SLP212
                 DENSITY ALT 1200FT =
2018-07-23 07:00 METAR CYSC 230700Z AUTO 09003KT 9SM FEW075 BKN100 BKN250 20/19 A3015 RMK SLP210
                 DENSITY ALT 1300FT =
2018-07-23 06:37 METAR CYSC 230637Z AUTO 06003KT 9SM SCT100 19/19 A3015 RMK SLP212 DENSITY ALT
                 1200FT =
2018-07-23 06:10 METAR CYSC 230610Z AUTO 14002KT 9SM -RA FEW080 BKN098 21/19 A3016 RMK SLP213
                 DENSITY ALT 1300FT =
2018-07-23 06:00 METAR CYSC 230600Z AUTO 16004KT 9SM FEW075 BKN096 BKN250 21/18 A3016 RMK SLP213
                 DENSITY ALT 1300FT =
2018-07-23 05:00 METAR CYSC 230500Z AUTO 12003KT 9SM FEW120 20/18 A3016 RMK SLP214 DENSITY ALT
                 1300FT =
2018-07-23 04:00 METAR CYSC 230400Z AUTO 14006KT 9SM FEW250 21/18 A3016 RMK SLP214 DENSITY ALT
                 1300FT =
2018-07-23 03:00 METAR CYSC 230300Z AUTO 12007KT 9SM FEW220 21/18 A3015 RMK SLP212 DENSITY ALT
                 1300FT =
2018-07-23 02:00 METAR CYSC 230200Z AUTO 14010KT 9SM CLR 21/18 A3015 RMK SLP212 DENSITY ALT
                 1300FT =
2018-07-23 01:00 METAR CYSC 230100Z AUTO 14007KT 9SM CLR 21/19 A3014 RMK SLP210 DENSITY ALT
                 1300FT =
2018-07-23 00:00 METAR CYSC 230000Z AUTO 13009KT 8SM FEW250 22/19 A3012 RMK SLP202 DENSITY ALT
                 1500FT =
2018-07-22 23:00 METAR CYSC 222300Z AUTO 12011KT 9SM FEW250 23/19 A3012 RMK SLP202 DENSITY ALT
                 1600FT =
2018-07-22 22:00 METAR CYSC 222200Z AUTO 13012KT 9SM SCT026 24/19 A3010 RMK SLP195 DENSITY ALT
                 1700FT =
2018-07-22 21:00 METAR CYSC 222100Z AUTO 13007KT 080V150 9SM BKN026 BKN032 OVC065 23/20 A3011 RMK
                 SLP199 DENSITY ALT 1600FT =
2018-07-22 20:00 METAR CYSC 222000Z AUTO 09007KT 9SM BKN070 BKN110 22/19 A3011 RMK SLP201 DENSITY
                 ALT 1500FT =
2018-07-22 19:00 METAR CYSC 221900Z AUTO 07007KT 9SM CLR 20/19 A3012 RMK SLP202 DENSITY ALT
                 1300FT =
2018-07-22 18:43 METAR CYSC 221843Z AUTO 06006KT 9SM FEW024 20/18 A3012 RMK SLP203 DENSITY ALT
                 1200FT =
2018-07-22 18:28 METAR CYSC 221828Z AUTO 07007KT 9SM -RA SCT024 SCT032 BKN240 19/18 A3012 RMK
                 SLP203 DENSITY ALT 1200FT =
2018-07-22 18:23 METAR CYSC 221823Z AUTO 07008KT 9SM -RA BKN024 BKN038 BKN250 19/18 A3012 RMK
                 SLP204 DENSITY ALT 1200FT =
2018-07-22 18:00 METAR CYSC 221800Z AUTO 07007KT 9SM -RA BKN033 BKN250 19/18 A3013 RMK PCPN 0.8MM
                 PAST HR SLP205 DENSITY ALT 1200FT =
2018-07-22 17:00 METAR CYSC 221700Z AUTO 06006KT 9SM -RA SCT028 BKN035 BKN250 20/17 A3013 RMK
                 SLP206 DENSITY ALT 1200FT =
2018-07-22 16:15 METAR CYSC 221615Z AUTO 09007KT 9SM -RA FEW031 BKN090 BKN240 21/14 A3013 RMK
                 SLP206 DENSITY ALT 1400FT =
2018-07-22 16:00 METAR CYSC 221600Z AUTO 07005KT 9SM BKN090 BKN240 21/14 A3013 RMK SLP205 DENSITY
                 ALT 1400FT =

Support USWX by starting your Amazon purchase here.